Aviation Digital Data Service (ADDS)

Output produced by METARs form (1343 UTC 26 May 2018)
found at http://www.aviationweather.gov/adds/metars/
 
TAF SKBQ 261100Z 2612/2712 35010KT 9999 FEW017 
     TEMPO 2612/2613 5000 BCFG SCT010 
     TEMPO 2620/2624 7000 SHRA SCT015CB 
     TEMPO 2700/2702 8000 DZ SCT015TCU 
     TEMPO 2709/2712 3000 BR SCT010 TX33/2618Z TN24/2711Z
       
TAF SKBO 261100Z 2612/2712 03004KT 9999 SCT020 SCT090 
     TEMPO 2612/2613 8000 VCFG -DZ SCT015 
     TEMPO 2617/2623 15010KT VCSH SCT020TCU 
     PROB40 2618/2621 7000 RA SCT017TCU 
     TEMPO 2700/2703 8000 DZ SCT015 
     TEMPO 2709/2712 7000 VCFG DZ SCT012 TX19/2618Z TN10/2711Z
       
TAF SKBG 261100Z 2612/2712 32007KT 9999 SCT013 SCT090 
     TEMPO 2612/2613 6000 VCFG DZ SCT010 
     TEMPO 2618/2623 7000 RA SCT015TCU 
     TEMPO 2700/2703 6000 VCFG DZ SCT012 
     TEMPO 2709/2712 4000 BR DZ SCT010 TX27/2618Z TN18/2711Z
       
TAF SKCL 261100Z 2612/2712 03003KT 9999 FEW030 SCT120 
     TEMPO 2612/2613 8000 VCFG DZ SCT015 
     TEMPO 2619/2624 32010KT 7000 RA SCT025TCU 
     TEMPO 2700/2703 8000 DZ SCT018TCU 
     TEMPO 2709/2712 6000 VCFG DZ SCT013 TX31/2618Z TN19/2711Z
       
TAF SKCG 261100Z 2612/2712 04004KT 9999 FEW017 
     TEMPO 2612/2613 8000 VCFG SCT010 
     TEMPO 2618/2624 32008KT SCT018TCU 
     TEMPO 2620/2623 7000 RA SCT015CB 
     TEMPO 2700/2702 8000 DZ SCT014TCU 
     TEMPO 2710/2712 7000 VCFG SCT010 TX34/2618Z TN25/2711Z
       
TAF SKCC 261100Z 2612/2712 18016KT 9999 SCT020 SCT090 
     TEMPO 2612/2613 8000 VCFG SCT010 
     TEMPO 2618/2623 8000 DZRA SCT020TCU 
     TEMPO 2700/2702 7000 VCFG DZ SCT013 
     TEMPO 2710/2712 5000 BR DZ SCT010 TX34/2618Z TN23/2711Z
       
TAF SKLT 261100Z 2612/2712 VRB02KT 9999 SCT015 SCT090 
     TEMPO 2612/2614 4000 RA BR BKN010 
     TEMPO 2618/2623 23008KT 7000 RADZ SCT015TCU 
     TEMPO 2700/2703 8000 DZRA SCT013TCU 
     TEMPO 2709/2712 3000 BR DZ SCT010 TX30/2618Z TN22/2711Z
       
TAF SKRG 261100Z 2612/2712 VRB02KT 9999 SCT018 SCT090 
     TEMPO 2612/2614 5000 BR DZ SCT010 
     TEMPO 2618/2624 12008KT SCT020TCU 
     PROB40 2619/2623 32010KT 7000 DZRA SCT017CB 
     TEMPO 2700/2704 6000 SHRA SCT013CB 
     TEMPO 2708/2712 3000 BR DZ SCT010 TX23/2619Z TN12/2711Z
       
TAF SKPE 261100Z 2612/2712 VRB02KT 9000 SCT017 SCT090 
     TEMPO 2612/2614 1500 BR SCT010 
     TEMPO 2618/2624 14008KT 8000 SCT017TCU 
     TEMPO 2619/2622 32010KT 7000 DZRA SCT018CB 
     TEMPO 2700/2703 8000 TSRA SCT013CB 
     TEMPO 2709/2712 2000 BR SCT007 TX28/2619Z TN18/2711Z
       
TAF SKSP 261100Z 2612/2712 09006KT 9999 SCT018 SCT090 
     TEMPO 2612/2613 9000 DZ SCT015TCU 
     TEMPO 2618/2621 7000 TSRA SCT018CB 
     TEMPO 2700/2703 8000 RA SCT015CB 
     TEMPO 2709/2712 8000 DZRA SCT013TCU TX31/2618Z TN26/2711Z